sensor_id;sensor_type;location;lat;lon;timestamp;P1;P2;P0
80935;PMS7003;70392;51.144;17.050;2023-09-30T00:00:05;27;24;17
80935;PMS7003;70392;51.144;17.050;2023-09-30T00:02:44;29;28;16
80935;PMS7003;70392;51.144;17.050;2023-09-30T00:05:00;26;26;18
80935;PMS7003;70392;51.144;17.050;2023-09-30T00:07:16;31;29;18
80935;PMS7003;70392;51.144;17.050;2023-09-30T00:10:13;27;25;18
80935;PMS7003;70392;51.144;17.050;2023-09-30T00:12:32;31;28;19
80935;PMS7003;70392;51.144;17.050;2023-09-30T00:14:48;32;29;19
80935;PMS7003;70392;51.144;17.050;2023-09-30T00:17:05;31;28;19
80935;PMS7003;70392;51.144;17.050;2023-09-30T00:19:21;16;16;6
80935;PMS7003;70392;51.144;17.050;2023-09-30T00:21:45;32;28;19
80935;PMS7003;70392;51.144;17.050;2023-09-30T00:24:04;32;31;19
80935;PMS7003;70392;51.144;17.050;2023-09-30T00:26:20;35;30;19
80935;PMS7003;70392;51.144;17.050;2023-09-30T00:28:41;32;30;19
80935;PMS7003;70392;51.144;17.050;2023-09-30T00:30:58;30;28;19
80935;PMS7003;70392;51.144;17.050;2023-09-30T00:33:23;33;28;18
80935;PMS7003;70392;51.144;17.050;2023-09-30T00:35:40;36;30;18
80935;PMS7003;70392;51.144;17.050;2023-09-30T00:37:57;30;29;19
80935;PMS7003;70392;51.144;17.050;2023-09-30T00:40:14;35;29;18
80935;PMS7003;70392;51.144;17.050;2023-09-30T00:42:30;24;21;16
80935;PMS7003;70392;51.144;17.050;2023-09-30T00:44:47;32;25;17
80935;PMS7003;70392;51.144;17.050;2023-09-30T00:47:05;27;27;15
80935;PMS7003;70392;51.144;17.050;2023-09-30T00:49:24;33;24;16
80935;PMS7003;70392;51.144;17.050;2023-09-30T00:51:41;32;28;18
80935;PMS7003;70392;51.144;17.050;2023-09-30T00:53:59;34;30;18
80935;PMS7003;70392;51.144;17.050;2023-09-30T00:56:18;33;30;21
80935;PMS7003;70392;51.144;17.050;2023-09-30T00:58:37;33;30;18
80935;PMS7003;70392;51.144;17.050;2023-09-30T01:00:54;113;104;57
80935;PMS7003;70392;51.144;17.050;2023-09-30T01:03:12;70;62;38
80935;PMS7003;70392;51.144;17.050;2023-09-30T01:05:30;29;27;15
80935;PMS7003;70392;51.144;17.050;2023-09-30T01:07:47;30;28;19
80935;PMS7003;70392;51.144;17.050;2023-09-30T01:10:06;28;21;15
80935;PMS7003;70392;51.144;17.050;2023-09-30T01:12:24;38;25;16
80935;PMS7003;70392;51.144;17.050;2023-09-30T01:14:49;27;26;15
80935;PMS7003;70392;51.144;17.050;2023-09-30T01:17:06;26;24;14
80935;PMS7003;70392;51.144;17.050;2023-09-30T01:19:27;27;26;18
80935;PMS7003;70392;51.144;17.050;2023-09-30T01:21:45;21;20;13
80935;PMS7003;70392;51.144;17.050;2023-09-30T01:24:04;29;27;16
80935;PMS7003;70392;51.144;17.050;2023-09-30T01:26:21;25;21;14
80935;PMS7003;70392;51.144;17.050;2023-09-30T01:28:39;20;20;12
80935;PMS7003;70392;51.144;17.050;2023-09-30T01:30:55;24;23;15
80935;PMS7003;70392;51.144;17.050;2023-09-30T01:33:17;22;21;14
80935;PMS7003;70392;51.144;17.050;2023-09-30T01:35:34;21;20;15
80935;PMS7003;70392;51.144;17.050;2023-09-30T01:38:00;16;16;9
80935;PMS7003;70392;51.144;17.050;2023-09-30T01:40:16;20;20;13
80935;PMS7003;70392;51.144;17.050;2023-09-30T01:42:37;24;20;14
80935;PMS7003;70392;51.144;17.050;2023-09-30T01:44:54;22;22;15
80935;PMS7003;70392;51.144;17.050;2023-09-30T01:47:12;21;18;13
80935;PMS7003;70392;51.144;17.050;2023-09-30T01:49:34;29;25;15
80935;PMS7003;70392;51.144;17.050;2023-09-30T01:51:50;23;22;13
80935;PMS7003;70392;51.144;17.050;2023-09-30T01:54:16;24;24;15
80935;PMS7003;70392;51.144;17.050;2023-09-30T01:56:33;20;20;13
80935;PMS7003;70392;51.144;17.050;2023-09-30T01:58:49;21;21;12
80935;PMS7003;70392;51.144;17.050;2023-09-30T02:01:05;20;20;15
80935;PMS7003;70392;51.144;17.050;2023-09-30T02:03:22;20;17;13
80935;PMS7003;70392;51.144;17.050;2023-09-30T02:05:41;21;19;13
80935;PMS7003;70392;51.144;17.050;2023-09-30T02:07:58;23;18;12
80935;PMS7003;70392;51.144;17.050;2023-09-30T02:10:15;14;14;11
80935;PMS7003;70392;51.144;17.050;2023-09-30T02:12:33;19;14;10
80935;PMS7003;70392;51.144;17.050;2023-09-30T02:15:02;22;20;13
80935;PMS7003;70392;51.144;17.050;2023-09-30T02:17:20;18;17;10
80935;PMS7003;70392;51.144;17.050;2023-09-30T02:19:37;15;14;10
80935;PMS7003;70392;51.144;17.050;2023-09-30T02:21:55;17;16;10
80935;PMS7003;70392;51.144;17.050;2023-09-30T02:24:12;14;14;10
80935;PMS7003;70392;51.144;17.050;2023-09-30T02:26:28;19;18;13
80935;PMS7003;70392;51.144;17.050;2023-09-30T02:28:45;14;13;10
80935;PMS7003;70392;51.144;17.050;2023-09-30T02:31:01;17;17;13
80935;PMS7003;70392;51.144;17.050;2023-09-30T02:33:18;17;17;13
80935;PMS7003;70392;51.144;17.050;2023-09-30T02:35:43;16;16;12
80935;PMS7003;70392;51.144;17.050;2023-09-30T02:38:02;14;14;11
80935;PMS7003;70392;51.144;17.050;2023-09-30T02:40:20;20;19;13
80935;PMS7003;70392;51.144;17.050;2023-09-30T02:42:42;15;15;9
80935;PMS7003;70392;51.144;17.050;2023-09-30T02:45:01;19;16;10
80935;PMS7003;70392;51.144;17.050;2023-09-30T02:47:19;18;18;12
80935;PMS7003;70392;51.144;17.050;2023-09-30T02:49:35;20;17;11
80935;PMS7003;70392;51.144;17.050;2023-09-30T02:51:55;16;14;12
80935;PMS7003;70392;51.144;17.050;2023-09-30T02:54:12;16;16;11
80935;PMS7003;70392;51.144;17.050;2023-09-30T02:56:32;14;14;11
80935;PMS7003;70392;51.144;17.050;2023-09-30T02:58:48;14;14;9
80935;PMS7003;70392;51.144;17.050;2023-09-30T03:01:04;18;18;12
80935;PMS7003;70392;51.144;17.050;2023-09-30T03:03:30;15;12;10
80935;PMS7003;70392;51.144;17.050;2023-09-30T03:05:48;16;15;9
80935;PMS7003;70392;51.144;17.050;2023-09-30T03:08:07;16;16;10
80935;PMS7003;70392;51.144;17.050;2023-09-30T03:10:24;13;13;10
80935;PMS7003;70392;51.144;17.050;2023-09-30T03:12:44;18;14;11
80935;PMS7003;70392;51.144;17.050;2023-09-30T03:15:02;12;11;11
80935;PMS7003;70392;51.144;17.050;2023-09-30T03:17:21;15;15;11
80935;PMS7003;70392;51.144;17.050;2023-09-30T03:19:37;15;15;11
80935;PMS7003;70392;51.144;17.050;2023-09-30T03:21:55;11;11;8
80935;PMS7003;70392;51.144;17.050;2023-09-30T03:24:12;15;14;10
80935;PMS7003;70392;51.144;17.050;2023-09-30T03:26:30;15;13;8
80935;PMS7003;70392;51.144;17.050;2023-09-30T03:28:48;15;13;9
80935;PMS7003;70392;51.144;17.050;2023-09-30T03:31:05;16;16;11
80935;PMS7003;70392;51.144;17.050;2023-09-30T03:33:23;14;14;10
80935;PMS7003;70392;51.144;17.050;2023-09-30T03:35:41;17;15;10
80935;PMS7003;70392;51.144;17.050;2023-09-30T03:37:58;12;12;9
80935;PMS7003;70392;51.144;17.050;2023-09-30T03:40:15;13;13;10
80935;PMS7003;70392;51.144;17.050;2023-09-30T03:42:45;17;15;10
80935;PMS7003;70392;51.144;17.050;2023-09-30T03:45:07;17;17;12
80935;PMS7003;70392;51.144;17.050;2023-09-30T03:47:24;13;13;10
80935;PMS7003;70392;51.144;17.050;2023-09-30T03:49:46;16;13;10
80935;PMS7003;70392;51.144;17.050;2023-09-30T03:52:06;21;18;11
80935;PMS7003;70392;51.144;17.050;2023-09-30T03:54:23;14;13;9
80935;PMS7003;70392;51.144;17.050;2023-09-30T03:56:40;14;14;9
80935;PMS7003;70392;51.144;17.050;2023-09-30T03:58:57;14;14;10
80935;PMS7003;70392;51.144;17.050;2023-09-30T04:01:14;16;13;8
80935;PMS7003;70392;51.144;17.050;2023-09-30T04:03:33;16;16;11
80935;PMS7003;70392;51.144;17.050;2023-09-30T04:06:10;20;20;12
80935;PMS7003;70392;51.144;17.050;2023-09-30T04:08:27;18;15;11
80935;PMS7003;70392;51.144;17.050;2023-09-30T04:10:48;14;14;9
80935;PMS7003;70392;51.144;17.050;2023-09-30T04:13:04;11;11;9
80935;PMS7003;70392;51.144;17.050;2023-09-30T04:15:23;19;19;12
80935;PMS7003;70392;51.144;17.050;2023-09-30T04:17:50;16;16;12
80935;PMS7003;70392;51.144;17.050;2023-09-30T04:20:10;16;16;10
80935;PMS7003;70392;51.144;17.050;2023-09-30T04:22:32;16;14;10
80935;PMS7003;70392;51.144;17.050;2023-09-30T04:24:49;16;16;10
80935;PMS7003;70392;51.144;17.050;2023-09-30T04:27:26;15;14;11
80935;PMS7003;70392;51.144;17.050;2023-09-30T04:29:43;21;18;11
80935;PMS7003;70392;51.144;17.050;2023-09-30T04:32:07;16;16;10
80935;PMS7003;70392;51.144;17.050;2023-09-30T04:34:23;18;13;9
80935;PMS7003;70392;51.144;17.050;2023-09-30T04:36:43;15;15;10
80935;PMS7003;70392;51.144;17.050;2023-09-30T04:39:02;18;15;11
80935;PMS7003;70392;51.144;17.050;2023-09-30T04:41:20;13;13;11
80935;PMS7003;70392;51.144;17.050;2023-09-30T04:43:37;17;17;9
80935;PMS7003;70392;51.144;17.050;2023-09-30T04:45:58;18;14;9
80935;PMS7003;70392;51.144;17.050;2023-09-30T04:48:14;14;14;10
80935;PMS7003;70392;51.144;17.050;2023-09-30T04:50:42;15;15;11
80935;PMS7003;70392;51.144;17.050;2023-09-30T04:52:58;16;14;10
80935;PMS7003;70392;51.144;17.050;2023-09-30T04:55:21;14;13;8
80935;PMS7003;70392;51.144;17.050;2023-09-30T04:57:39;13;12;9
80935;PMS7003;70392;51.144;17.050;2023-09-30T05:00:03;14;14;10
80935;PMS7003;70392;51.144;17.050;2023-09-30T05:02:29;11;11;8
80935;PMS7003;70392;51.144;17.050;2023-09-30T05:04:44;16;16;11
80935;PMS7003;70392;51.144;17.050;2023-09-30T05:07:01;16;15;10
80935;PMS7003;70392;51.144;17.050;2023-09-30T05:09:27;15;13;8
80935;PMS7003;70392;51.144;17.050;2023-09-30T05:11:44;10;10;9
80935;PMS7003;70392;51.144;17.050;2023-09-30T05:14:00;18;14;9
80935;PMS7003;70392;51.144;17.050;2023-09-30T05:16:17;18;13;8
80935;PMS7003;70392;51.144;17.050;2023-09-30T05:18:34;15;15;9
80935;PMS7003;70392;51.144;17.050;2023-09-30T05:20:51;18;16;11
80935;PMS7003;70392;51.144;17.050;2023-09-30T05:23:07;19;19;10
80935;PMS7003;70392;51.144;17.050;2023-09-30T05:25:34;16;14;10
80935;PMS7003;70392;51.144;17.050;2023-09-30T05:27:50;20;20;13
80935;PMS7003;70392;51.144;17.050;2023-09-30T05:30:07;15;12;10
80935;PMS7003;70392;51.144;17.050;2023-09-30T05:32:25;17;16;11
80935;PMS7003;70392;51.144;17.050;2023-09-30T05:34:43;15;15;7
80935;PMS7003;70392;51.144;17.050;2023-09-30T05:37:00;15;15;10
80935;PMS7003;70392;51.144;17.050;2023-09-30T05:39:17;16;15;10
80935;PMS7003;70392;51.144;17.050;2023-09-30T05:41:45;15;14;9
80935;PMS7003;70392;51.144;17.050;2023-09-30T05:44:03;10;10;8
80935;PMS7003;70392;51.144;17.050;2023-09-30T05:46:20;15;14;11
80935;PMS7003;70392;51.144;17.050;2023-09-30T05:48:39;17;15;12
80935;PMS7003;70392;51.144;17.050;2023-09-30T05:50:56;17;15;10
80935;PMS7003;70392;51.144;17.050;2023-09-30T05:53:13;12;12;9
80935;PMS7003;70392;51.144;17.050;2023-09-30T05:55:29;15;15;11
80935;PMS7003;70392;51.144;17.050;2023-09-30T05:57:49;13;13;9
80935;PMS7003;70392;51.144;17.050;2023-09-30T06:00:06;12;11;8
80935;PMS7003;70392;51.144;17.050;2023-09-30T06:03:10;18;17;11
80935;PMS7003;70392;51.144;17.050;2023-09-30T06:05:27;17;15;10
80935;PMS7003;70392;51.144;17.050;2023-09-30T06:07:46;18;15;9
80935;PMS7003;70392;51.144;17.050;2023-09-30T06:10:08;11;10;9
80935;PMS7003;70392;51.144;17.050;2023-09-30T06:13:01;15;15;9
80935;PMS7003;70392;51.144;17.050;2023-09-30T06:15:19;10;10;8
80935;PMS7003;70392;51.144;17.050;2023-09-30T06:17:49;8;8;6
80935;PMS7003;70392;51.144;17.050;2023-09-30T06:20:08;9;9;5
80935;PMS7003;70392;51.144;17.050;2023-09-30T06:22:53;3;3;2
80935;PMS7003;70392;51.144;17.050;2023-09-30T06:25:09;4;3;3
80935;PMS7003;70392;51.144;17.050;2023-09-30T06:27:27;2;2;1
80935;PMS7003;70392;51.144;17.050;2023-09-30T06:29:43;2;2;1
80935;PMS7003;70392;51.144;17.050;2023-09-30T06:31:59;1;1;0
80935;PMS7003;70392;51.144;17.050;2023-09-30T06:34:16;2;2;1
80935;PMS7003;70392;51.144;17.050;2023-09-30T06:36:52;0;0;0
80935;PMS7003;70392;51.144;17.050;2023-09-30T06:39:09;0;0;0
80935;PMS7003;70392;51.144;17.050;2023-09-30T06:41:28;0;0;0
80935;PMS7003;70392;51.144;17.050;2023-09-30T06:43:46;1;1;1
80935;PMS7003;70392;51.144;17.050;2023-09-30T06:48:26;4;2;1
80935;PMS7003;70392;51.144;17.050;2023-09-30T06:50:48;1;1;0
80935;PMS7003;70392;51.144;17.050;2023-09-30T06:53:05;4;4;2
80935;PMS7003;70392;51.144;17.050;2023-09-30T06:55:25;2;1;0
80935;PMS7003;70392;51.144;17.050;2023-09-30T06:57:44;1;1;1
80935;PMS7003;70392;51.144;17.050;2023-09-30T07:00:12;4;4;2
80935;PMS7003;70392;51.144;17.050;2023-09-30T07:02:29;2;2;1
80935;PMS7003;70392;51.144;17.050;2023-09-30T07:04:44;1;1;1
80935;PMS7003;70392;51.144;17.050;2023-09-30T07:07:21;4;4;2
80935;PMS7003;70392;51.144;17.050;2023-09-30T07:09:37;8;8;3
80935;PMS7003;70392;51.144;17.050;2023-09-30T07:11:53;5;5;4
80935;PMS7003;70392;51.144;17.050;2023-09-30T07:14:10;22;20;11
80935;PMS7003;70392;51.144;17.050;2023-09-30T07:16:26;7;7;4
80935;PMS7003;70392;51.144;17.050;2023-09-30T07:18:43;8;8;5
80935;PMS7003;70392;51.144;17.050;2023-09-30T07:20:59;6;6;3
80935;PMS7003;70392;51.144;17.050;2023-09-30T07:23:30;7;7;3
80935;PMS7003;70392;51.144;17.050;2023-09-30T07:25:47;12;11;5
80935;PMS7003;70392;51.144;17.050;2023-09-30T07:28:04;9;9;6
80935;PMS7003;70392;51.144;17.050;2023-09-30T07:30:27;12;10;5
80935;PMS7003;70392;51.144;17.050;2023-09-30T07:32:43;9;7;5
80935;PMS7003;70392;51.144;17.050;2023-09-30T07:35:00;7;7;6
80935;PMS7003;70392;51.144;17.050;2023-09-30T07:37:17;6;6;3
80935;PMS7003;70392;51.144;17.050;2023-09-30T07:39:35;5;5;4
80935;PMS7003;70392;51.144;17.050;2023-09-30T07:41:52;6;4;2
80935;PMS7003;70392;51.144;17.050;2023-09-30T07:44:11;5;5;4
80935;PMS7003;70392;51.144;17.050;2023-09-30T07:46:30;9;5;3
80935;PMS7003;70392;51.144;17.050;2023-09-30T07:48:46;4;3;1
80935;PMS7003;70392;51.144;17.050;2023-09-30T07:51:03;3;3;1
80935;PMS7003;70392;51.144;17.050;2023-09-30T07:53:22;4;4;3
80935;PMS7003;70392;51.144;17.050;2023-09-30T07:55:38;5;4;2
80935;PMS7003;70392;51.144;17.050;2023-09-30T07:57:56;4;3;1
80935;PMS7003;70392;51.144;17.050;2023-09-30T08:00:16;5;2;1
80935;PMS7003;70392;51.144;17.050;2023-09-30T08:02:33;2;2;1
80935;PMS7003;70392;51.144;17.050;2023-09-30T08:04:49;4;4;2
80935;PMS7003;70392;51.144;17.050;2023-09-30T08:07:07;2;2;1
80935;PMS7003;70392;51.144;17.050;2023-09-30T08:09:26;3;2;1
80935;PMS7003;70392;51.144;17.050;2023-09-30T08:11:54;5;4;1
80935;PMS7003;70392;51.144;17.050;2023-09-30T08:14:32;8;2;1
80935;PMS7003;70392;51.144;17.050;2023-09-30T08:16:48;3;2;1
80935;PMS7003;70392;51.144;17.050;2023-09-30T08:19:08;6;2;2
80935;PMS7003;70392;51.144;17.050;2023-09-30T08:21:25;8;5;3
80935;PMS7003;70392;51.144;17.050;2023-09-30T08:23:51;3;3;2
80935;PMS7003;70392;51.144;17.050;2023-09-30T08:26:07;6;6;3
80935;PMS7003;70392;51.144;17.050;2023-09-30T08:28:23;2;2;2
80935;PMS7003;70392;51.144;17.050;2023-09-30T08:33:20;10;10;4
80935;PMS7003;70392;51.144;17.050;2023-09-30T08:35:46;4;4;3
80935;PMS7003;70392;51.144;17.050;2023-09-30T08:38:02;3;2;2
80935;PMS7003;70392;51.144;17.050;2023-09-30T08:40:20;7;4;2
80935;PMS7003;70392;51.144;17.050;2023-09-30T08:42:38;3;2;1
80935;PMS7003;70392;51.144;17.050;2023-09-30T08:44:57;4;4;2
80935;PMS7003;70392;51.144;17.050;2023-09-30T08:47:13;4;3;2
80935;PMS7003;70392;51.144;17.050;2023-09-30T08:49:31;6;6;3
80935;PMS7003;70392;51.144;17.050;2023-09-30T08:52:05;6;6;3
80935;PMS7003;70392;51.144;17.050;2023-09-30T08:54:22;5;5;2
80935;PMS7003;70392;51.144;17.050;2023-09-30T08:56:40;6;6;2
80935;PMS7003;70392;51.144;17.050;2023-09-30T08:59:11;4;4;3
80935;PMS7003;70392;51.144;17.050;2023-09-30T09:01:28;5;5;3
80935;PMS7003;70392;51.144;17.050;2023-09-30T09:03:46;5;5;2
80935;PMS7003;70392;51.144;17.050;2023-09-30T09:06:11;4;4;2
80935;PMS7003;70392;51.144;17.050;2023-09-30T09:08:28;2;2;2
80935;PMS7003;70392;51.144;17.050;2023-09-30T09:13:11;3;3;1
80935;PMS7003;70392;51.144;17.050;2023-09-30T09:15:28;12;11;8
80935;PMS7003;70392;51.144;17.050;2023-09-30T09:17:45;5;4;2
80935;PMS7003;70392;51.144;17.050;2023-09-30T09:20:04;0;0;0
80935;PMS7003;70392;51.144;17.050;2023-09-30T09:22:21;5;4;0
80935;PMS7003;70392;51.144;17.050;2023-09-30T09:24:38;4;3;2
80935;PMS7003;70392;51.144;17.050;2023-09-30T09:29:24;1;1;1
80935;PMS7003;70392;51.144;17.050;2023-09-30T09:31:47;3;2;2
80935;PMS7003;70392;51.144;17.050;2023-09-30T09:34:12;1;1;0
80935;PMS7003;70392;51.144;17.050;2023-09-30T09:38:59;0;0;0
80935;PMS7003;70392;51.144;17.050;2023-09-30T09:41:36;1;1;1
80935;PMS7003;70392;51.144;17.050;2023-09-30T09:44:08;4;1;1
80935;PMS7003;70392;51.144;17.050;2023-09-30T09:46:25;2;2;1
80935;PMS7003;70392;51.144;17.050;2023-09-30T09:48:45;2;2;1
80935;PMS7003;70392;51.144;17.050;2023-09-30T09:51:07;4;4;3
80935;PMS7003;70392;51.144;17.050;2023-09-30T09:53:29;2;2;1
80935;PMS7003;70392;51.144;17.050;2023-09-30T09:55:51;6;3;2
80935;PMS7003;70392;51.144;17.050;2023-09-30T09:58:09;1;1;1
80935;PMS7003;70392;51.144;17.050;2023-09-30T10:00:26;1;1;1
80935;PMS7003;70392;51.144;17.050;2023-09-30T10:02:48;4;3;1
80935;PMS7003;70392;51.144;17.050;2023-09-30T10:05:04;1;1;1
80935;PMS7003;70392;51.144;17.050;2023-09-30T10:07:26;3;3;1
80935;PMS7003;70392;51.144;17.050;2023-09-30T10:09:46;1;1;1
80935;PMS7003;70392;51.144;17.050;2023-09-30T10:12:06;1;1;1
80935;PMS7003;70392;51.144;17.050;2023-09-30T10:16:49;2;1;0
80935;PMS7003;70392;51.144;17.050;2023-09-30T10:19:07;6;2;2
80935;PMS7003;70392;51.144;17.050;2023-09-30T10:21:37;2;2;1
80935;PMS7003;70392;51.144;17.050;2023-09-30T10:24:15;1;1;0
80935;PMS7003;70392;51.144;17.050;2023-09-30T10:26:35;1;1;1
80935;PMS7003;70392;51.144;17.050;2023-09-30T10:28:57;2;2;1
80935;PMS7003;70392;51.144;17.050;2023-09-30T10:31:27;2;2;1
80935;PMS7003;70392;51.144;17.050;2023-09-30T10:36:10;1;1;0
80935;PMS7003;70392;51.144;17.050;2023-09-30T10:38:57;22;17;9
80935;PMS7003;70392;51.144;17.050;2023-09-30T10:41:48;1;1;0
80935;PMS7003;70392;51.144;17.050;2023-09-30T10:43:55;2;2;0
80935;PMS7003;70392;51.144;17.050;2023-09-30T10:48:37;3;2;1
80935;PMS7003;70392;51.144;17.050;2023-09-30T10:51:00;2;2;1
80935;PMS7003;70392;51.144;17.050;2023-09-30T10:53:26;2;2;1
80935;PMS7003;70392;51.144;17.050;2023-09-30T10:56:01;4;2;0
80935;PMS7003;70392;51.144;17.050;2023-09-30T10:58:17;4;1;1
80935;PMS7003;70392;51.144;17.050;2023-09-30T11:00:34;5;5;2
80935;PMS7003;70392;51.144;17.050;2023-09-30T11:02:51;4;2;0
80935;PMS7003;70392;51.144;17.050;2023-09-30T11:05:09;2;2;1
80935;PMS7003;70392;51.144;17.050;2023-09-30T11:07:26;1;1;0
80935;PMS7003;70392;51.144;17.050;2023-09-30T11:09:46;4;3;1
80935;PMS7003;70392;51.144;17.050;2023-09-30T11:12:13;2;2;0
80935;PMS7003;70392;51.144;17.050;2023-09-30T11:14:31;3;3;1
80935;PMS7003;70392;51.144;17.050;2023-09-30T11:16:49;1;1;0
80935;PMS7003;70392;51.144;17.050;2023-09-30T11:19:18;3;1;1
80935;PMS7003;70392;51.144;17.050;2023-09-30T11:21:39;2;2;1
80935;PMS7003;70392;51.144;17.050;2023-09-30T11:23:56;4;4;2
80935;PMS7003;70392;51.144;17.050;2023-09-30T11:26:34;1;1;1
80935;PMS7003;70392;51.144;17.050;2023-09-30T11:28:51;27;21;12
80935;PMS7003;70392;51.144;17.050;2023-09-30T11:31:10;4;4;3
80935;PMS7003;70392;51.144;17.050;2023-09-30T11:33:30;3;3;1
80935;PMS7003;70392;51.144;17.050;2023-09-30T11:35:56;3;3;3
80935;PMS7003;70392;51.144;17.050;2023-09-30T11:38:36;3;3;2
80935;PMS7003;70392;51.144;17.050;2023-09-30T11:41:03;2;2;2
80935;PMS7003;70392;51.144;17.050;2023-09-30T11:46:11;2;2;1
80935;PMS7003;70392;51.144;17.050;2023-09-30T11:48:30;7;2;1
80935;PMS7003;70392;51.144;17.050;2023-09-30T11:50:47;3;1;1
80935;PMS7003;70392;51.144;17.050;2023-09-30T11:53:16;3;3;1
80935;PMS7003;70392;51.144;17.050;2023-09-30T11:55:36;3;3;2
80935;PMS7003;70392;51.144;17.050;2023-09-30T11:57:53;4;4;2
80935;PMS7003;70392;51.144;17.050;2023-09-30T12:00:11;4;3;2
80935;PMS7003;70392;51.144;17.050;2023-09-30T12:02:30;2;2;2
80935;PMS7003;70392;51.144;17.050;2023-09-30T12:04:46;6;4;3
80935;PMS7003;70392;51.144;17.050;2023-09-30T12:07:05;4;4;1
80935;PMS7003;70392;51.144;17.050;2023-09-30T12:09:23;6;3;2
80935;PMS7003;70392;51.144;17.050;2023-09-30T12:11:43;3;3;2
80935;PMS7003;70392;51.144;17.050;2023-09-30T12:14:00;3;3;1
80935;PMS7003;70392;51.144;17.050;2023-09-30T12:16:37;6;5;3
80935;PMS7003;70392;51.144;17.050;2023-09-30T12:18:55;5;5;2
80935;PMS7003;70392;51.144;17.050;2023-09-30T12:21:16;2;2;1
80935;PMS7003;70392;51.144;17.050;2023-09-30T12:24:11;2;2;1
80935;PMS7003;70392;51.144;17.050;2023-09-30T12:26:55;5;2;1
80935;PMS7003;70392;51.144;17.050;2023-09-30T12:29:13;5;3;2
80935;PMS7003;70392;51.144;17.050;2023-09-30T12:31:37;3;3;3
80935;PMS7003;70392;51.144;17.050;2023-09-30T12:33:55;2;2;1
80935;PMS7003;70392;51.144;17.050;2023-09-30T12:36:11;3;2;1
80935;PMS7003;70392;51.144;17.050;2023-09-30T12:38:29;2;2;1
80935;PMS7003;70392;51.144;17.050;2023-09-30T12:40:46;4;3;2
80935;PMS7003;70392;51.144;17.050;2023-09-30T12:43:02;3;3;2
80935;PMS7003;70392;51.144;17.050;2023-09-30T12:45:21;1;1;0
80935;PMS7003;70392;51.144;17.050;2023-09-30T12:47:40;3;3;2
80935;PMS7003;70392;51.144;17.050;2023-09-30T12:49:56;5;2;1
80935;PMS7003;70392;51.144;17.050;2023-09-30T12:52:14;5;5;2
80935;PMS7003;70392;51.144;17.050;2023-09-30T12:54:32;1;1;1
80935;PMS7003;70392;51.144;17.050;2023-09-30T12:57:09;4;4;2
80935;PMS7003;70392;51.144;17.050;2023-09-30T12:59:33;1;1;0
80935;PMS7003;70392;51.144;17.050;2023-09-30T13:01:50;3;2;1
80935;PMS7003;70392;51.144;17.050;2023-09-30T13:04:06;4;2;1
80935;PMS7003;70392;51.144;17.050;2023-09-30T13:06:26;4;3;2
80935;PMS7003;70392;51.144;17.050;2023-09-30T13:08:51;4;2;1
80935;PMS7003;70392;51.144;17.050;2023-09-30T13:11:08;2;2;0
80935;PMS7003;70392;51.144;17.050;2023-09-30T13:13:27;3;3;3
80935;PMS7003;70392;51.144;17.050;2023-09-30T13:15:49;4;4;2
80935;PMS7003;70392;51.144;17.050;2023-09-30T13:18:07;4;4;2
80935;PMS7003;70392;51.144;17.050;2023-09-30T13:20:24;3;2;2
80935;PMS7003;70392;51.144;17.050;2023-09-30T13:22:48;2;2;2
80935;PMS7003;70392;51.144;17.050;2023-09-30T13:25:07;1;0;0
80935;PMS7003;70392;51.144;17.050;2023-09-30T13:27:26;5;2;1
80935;PMS7003;70392;51.144;17.050;2023-09-30T13:29:42;1;1;0
80935;PMS7003;70392;51.144;17.050;2023-09-30T13:32:00;2;2;0
80935;PMS7003;70392;51.144;17.050;2023-09-30T13:34:16;3;2;1
80935;PMS7003;70392;51.144;17.050;2023-09-30T13:36:33;1;1;0
80935;PMS7003;70392;51.144;17.050;2023-09-30T13:38:49;2;1;0
80935;PMS7003;70392;51.144;17.050;2023-09-30T13:41:07;4;4;2
80935;PMS7003;70392;51.144;17.050;2023-09-30T13:43:23;2;2;2
80935;PMS7003;70392;51.144;17.050;2023-09-30T13:46:02;2;2;2
80935;PMS7003;70392;51.144;17.050;2023-09-30T13:48:22;4;2;2
80935;PMS7003;70392;51.144;17.050;2023-09-30T13:50:38;2;2;2
80935;PMS7003;70392;51.144;17.050;2023-09-30T13:52:55;4;4;2
80935;PMS7003;70392;51.144;17.050;2023-09-30T13:55:18;1;1;1
80935;PMS7003;70392;51.144;17.050;2023-09-30T13:57:35;4;2;2
80935;PMS7003;70392;51.144;17.050;2023-09-30T13:59:51;4;2;1
80935;PMS7003;70392;51.144;17.050;2023-09-30T14:02:07;4;4;2
80935;PMS7003;70392;51.144;17.050;2023-09-30T14:04:30;2;2;2
80935;PMS7003;70392;51.144;17.050;2023-09-30T14:06:51;3;3;2
80935;PMS7003;70392;51.144;17.050;2023-09-30T14:09:07;2;2;0
80935;PMS7003;70392;51.144;17.050;2023-09-30T14:11:30;1;0;0
80935;PMS7003;70392;51.144;17.050;2023-09-30T14:13:46;2;2;1
80935;PMS7003;70392;51.144;17.050;2023-09-30T14:16:22;11;11;8
80935;PMS7003;70392;51.144;17.050;2023-09-30T14:18:38;3;3;3
80935;PMS7003;70392;51.144;17.050;2023-09-30T14:20:55;3;3;2
80935;PMS7003;70392;51.144;17.050;2023-09-30T14:23:12;5;5;3
80935;PMS7003;70392;51.144;17.050;2023-09-30T14:25:29;4;4;1
80935;PMS7003;70392;51.144;17.050;2023-09-30T14:27:47;2;2;2
80935;PMS7003;70392;51.144;17.050;2023-09-30T14:30:04;5;3;1
80935;PMS7003;70392;51.144;17.050;2023-09-30T14:32:20;1;1;1
80935;PMS7003;70392;51.144;17.050;2023-09-30T14:34:38;1;1;0
80935;PMS7003;70392;51.144;17.050;2023-09-30T14:36:57;4;3;1
80935;PMS7003;70392;51.144;17.050;2023-09-30T14:39:13;2;1;1
80935;PMS7003;70392;51.144;17.050;2023-09-30T14:41:32;2;2;1
80935;PMS7003;70392;51.144;17.050;2023-09-30T14:43:48;5;5;2
80935;PMS7003;70392;51.144;17.050;2023-09-30T14:46:08;3;2;1
80935;PMS7003;70392;51.144;17.050;2023-09-30T14:48:24;2;2;1
80935;PMS7003;70392;51.144;17.050;2023-09-30T14:53:04;1;1;0
80935;PMS7003;70392;51.144;17.050;2023-09-30T14:55:20;2;2;1
80935;PMS7003;70392;51.144;17.050;2023-09-30T14:57:37;4;3;1
80935;PMS7003;70392;51.144;17.050;2023-09-30T14:59:57;2;2;1
80935;PMS7003;70392;51.144;17.050;2023-09-30T15:02:31;1;1;1
80935;PMS7003;70392;51.144;17.050;2023-09-30T15:04:47;3;3;2
80935;PMS7003;70392;51.144;17.050;2023-09-30T15:07:05;2;2;1
80935;PMS7003;70392;51.144;17.050;2023-09-30T15:09:21;4;3;1
80935;PMS7003;70392;51.144;17.050;2023-09-30T15:11:39;5;3;1
80935;PMS7003;70392;51.144;17.050;2023-09-30T15:14:07;3;3;1
80935;PMS7003;70392;51.144;17.050;2023-09-30T15:16:23;3;3;0
80935;PMS7003;70392;51.144;17.050;2023-09-30T15:18:41;3;3;1
80935;PMS7003;70392;51.144;17.050;2023-09-30T15:21:00;6;5;3
80935;PMS7003;70392;51.144;17.050;2023-09-30T15:23:19;2;2;0
80935;PMS7003;70392;51.144;17.050;2023-09-30T15:27:58;2;2;1
80935;PMS7003;70392;51.144;17.050;2023-09-30T15:30:19;1;1;0
80935;PMS7003;70392;51.144;17.050;2023-09-30T15:32:36;4;4;0
80935;PMS7003;70392;51.144;17.050;2023-09-30T15:34:54;4;1;1
80935;PMS7003;70392;51.144;17.050;2023-09-30T15:37:13;4;3;2
80935;PMS7003;70392;51.144;17.050;2023-09-30T15:39:38;5;3;1